PHOGPHLI

Guest
Details From PHOG - Kahului
To PHLI - Lihue - Kauai
Flight Number -
Tags Generated
Created
Modified
Stats Distance 175 nm / 324 km
Max Altitude 0 ft / 0 m
Waypoints 2
Social Downloads 0
Likes 0
Share VATSIM

Download

Looking for another format? Having issues loading an existing format? Contact us
Advertisement - Login to hide

Notes

Generated

Route

PHOG PHLI

ID Type Via Altitude Latitude Longitude Leg Dist Tot Dist Heading (true) Name
O PHOG APT - 0 ft / 0 m 20.89802˚ -156.43710˚ - 0 nm - -
O PHLI APT - 0 ft / 0 m 21.97291˚ -159.34882˚ 175 nm 175 nm 292° / 291° -

Altitude Profile

Advertisement - Login to hide

Weather


0- 5 10 15 20 25 30 35+ Temperature / ° C

Clouds and Precipitation
Forecast for 2018-05-23 06:00 UTC. Updated 8 minutes ago

Ground ~20,000 ft ~40,000 ft Winds

PHOG

Details ICAO PHOG (OGG)
Name Kahului
Region USA (Hawaii)
Timezone Pacific/Honolulu (UTC-10.0)
Stats Elevation 54 ft / 16 m (AMSL)
Location 20.898975° -156.430460°
Runways 2
Magnetic Variation 9.514° E

METAR

PHOG 230254Z 05016G26KT 10SM FEW040 SCT055 26/21 A3001

Decode

TAF

PHOG 222340Z 2300/2324 06019G25KT P6SM FEW030 SCT050 FM230600 05011KT P6SM FEW025 SCT040 FM232000 06019G25KT P6SM FEW025 SCT050

Decode

Departure Runways

ID Width Length Bearing (true) Bearing (mag) Surface Threshold Offset Overrun Length
02 150 ft / 46 m 7,013 ft / 2,138 m 34.81° 25.30° Asphalt 0 ft / 0 m 0 ft / 0 m
05 150 ft / 46 m 4,989 ft / 1,521 m 64.91° 55.40° Asphalt 0 ft / 0 m 0 ft / 0 m
20 150 ft / 46 m 7,013 ft / 2,138 m 214.81° 205.30° Asphalt 0 ft / 0 m 0 ft / 0 m
23 150 ft / 46 m 4,989 ft / 1,521 m 244.91° 235.40° Asphalt 0 ft / 0 m 0 ft / 0 m

PHLI

Details ICAO PHLI (LIH)
Name Lihue - Kauai
Region USA (Hawaii)
Timezone Pacific/Honolulu (UTC-10.0)
Stats Elevation 153 ft / 47 m (AMSL)
Location 21.975984° -159.338958°
Runways 2
Magnetic Variation 9.442° E

METAR

PHLI 230253Z 03016KT 10SM FEW015 SCT020 BKN030 24/22 A3006

Decode

TAF

PHLI 230136Z 2302/2324 04018G26KT P6SM VCSH SCT025 BKN040 FM230600 04015KT P6SM SCT025 BKN040 FM232100 05016G25KT P6SM VCSH SCT025 BKN035

Decode

Destination Runways

ID Width Length Bearing (true) Bearing (mag) Surface Threshold Offset Overrun Length
03 151 ft / 46 m 6,510 ft / 1,984 m 44.84° 35.40° Asphalt 0 ft / 0 m 230 ft / 70 m
17 151 ft / 46 m 6,529 ft / 1,990 m 180.01° 170.57° Asphalt 0 ft / 0 m 200 ft / 61 m
21 151 ft / 46 m 6,510 ft / 1,984 m 224.84° 215.40° Asphalt 203 ft / 62 m 92 ft / 28 m
35 151 ft / 46 m 6,529 ft / 1,990 m 0.01° 350.57° Asphalt 0 ft / 0 m 213 ft / 65 m

Approach Navaids

Runway Type Ident Frequency Range Bearing (true) Bearing (mag) Slope Elevation
35 Localiser ILIH 110.90 MHz 18 nm / 33 km 0.01° 350.57° - 92 ft / 28 m (AMSL)
35 Glidescope ILIH 110.90 MHz 10 nm / 19 km 0.01° 350.57° 3.00° 92 ft / 28 m (AMSL)
35 DME ILIH 110.90 MHz 18 nm / 33 km - - - 92 ft / 28 m (AMSL)

Popular Alternatives